sensor_id;sensor_type;location;lat;lon;timestamp;P1;durP1;ratioP1;P2;durP2;ratioP2
32906;SDS011;19259;51.590;5.320;2022-07-29T00:01:39;3.33;;;1.57;;
32906;SDS011;19259;51.590;5.320;2022-07-29T00:04:06;4.62;;;1.50;;
32906;SDS011;19259;51.590;5.320;2022-07-29T00:06:34;3.40;;;1.57;;
32906;SDS011;19259;51.590;5.320;2022-07-29T00:09:01;5.10;;;1.50;;
32906;SDS011;19259;51.590;5.320;2022-07-29T00:11:29;4.55;;;1.65;;
32906;SDS011;19259;51.590;5.320;2022-07-29T00:13:57;4.20;;;1.60;;
32906;SDS011;19259;51.590;5.320;2022-07-29T00:16:24;7.65;;;1.95;;
32906;SDS011;19259;51.590;5.320;2022-07-29T00:18:52;8.55;;;1.52;;
32906;SDS011;19259;51.590;5.320;2022-07-29T00:21:19;5.67;;;1.62;;
32906;SDS011;19259;51.590;5.320;2022-07-29T00:23:47;3.12;;;1.45;;
32906;SDS011;19259;51.590;5.320;2022-07-29T00:26:14;5.42;;;1.50;;
32906;SDS011;19259;51.590;5.320;2022-07-29T00:28:42;3.12;;;1.55;;
32906;SDS011;19259;51.590;5.320;2022-07-29T00:31:09;5.37;;;1.60;;
32906;SDS011;19259;51.590;5.320;2022-07-29T00:33:37;2.85;;;1.42;;
32906;SDS011;19259;51.590;5.320;2022-07-29T00:36:05;6.50;;;1.55;;
32906;SDS011;19259;51.590;5.320;2022-07-29T00:38:32;4.03;;;1.60;;
32906;SDS011;19259;51.590;5.320;2022-07-29T00:41:00;7.35;;;1.67;;
32906;SDS011;19259;51.590;5.320;2022-07-29T00:43:27;3.70;;;1.70;;
32906;SDS011;19259;51.590;5.320;2022-07-29T00:45:55;5.15;;;1.40;;
32906;SDS011;19259;51.590;5.320;2022-07-29T00:48:22;3.40;;;1.82;;
32906;SDS011;19259;51.590;5.320;2022-07-29T00:50:50;3.58;;;1.40;;
32906;SDS011;19259;51.590;5.320;2022-07-29T00:53:18;5.97;;;1.75;;
32906;SDS011;19259;51.590;5.320;2022-07-29T00:55:46;5.20;;;1.75;;
32906;SDS011;19259;51.590;5.320;2022-07-29T00:58:15;5.03;;;1.27;;
32906;SDS011;19259;51.590;5.320;2022-07-29T01:00:43;5.75;;;1.55;;
32906;SDS011;19259;51.590;5.320;2022-07-29T01:03:11;5.22;;;1.47;;
32906;SDS011;19259;51.590;5.320;2022-07-29T01:05:39;6.05;;;1.85;;
32906;SDS011;19259;51.590;5.320;2022-07-29T01:08:10;5.33;;;1.70;;
32906;SDS011;19259;51.590;5.320;2022-07-29T01:10:39;3.52;;;1.30;;
32906;SDS011;19259;51.590;5.320;2022-07-29T01:13:10;4.87;;;1.42;;
32906;SDS011;19259;51.590;5.320;2022-07-29T01:15:43;5.75;;;1.60;;
32906;SDS011;19259;51.590;5.320;2022-07-29T01:18:24;3.57;;;1.37;;
32906;SDS011;19259;51.590;5.320;2022-07-29T01:23:32;8.58;;;2.20;;
32906;SDS011;19259;51.590;5.320;2022-07-29T01:26:20;4.15;;;1.70;;
32906;SDS011;19259;51.590;5.320;2022-07-29T01:28:49;4.33;;;1.80;;
32906;SDS011;19259;51.590;5.320;2022-07-29T01:33:48;4.70;;;2.60;;
32906;SDS011;19259;51.590;5.320;2022-07-29T01:36:18;5.47;;;1.95;;
32906;SDS011;19259;51.590;5.320;2022-07-29T01:39:11;4.90;;;1.70;;
32906;SDS011;19259;51.590;5.320;2022-07-29T01:41:35;4.47;;;1.70;;
32906;SDS011;19259;51.590;5.320;2022-07-29T01:44:12;6.08;;;2.00;;
32906;SDS011;19259;51.590;5.320;2022-07-29T01:46:44;4.37;;;1.87;;
32906;SDS011;19259;51.590;5.320;2022-07-29T01:49:16;8.40;;;2.12;;
32906;SDS011;19259;51.590;5.320;2022-07-29T01:51:50;7.55;;;2.00;;
32906;SDS011;19259;51.590;5.320;2022-07-29T01:54:37;4.12;;;1.77;;
32906;SDS011;19259;51.590;5.320;2022-07-29T01:57:12;5.03;;;2.00;;
32906;SDS011;19259;51.590;5.320;2022-07-29T01:59:43;5.20;;;2.15;;
32906;SDS011;19259;51.590;5.320;2022-07-29T02:02:13;5.95;;;1.98;;
32906;SDS011;19259;51.590;5.320;2022-07-29T02:04:42;6.80;;;1.92;;
32906;SDS011;19259;51.590;5.320;2022-07-29T02:07:15;5.62;;;2.12;;
32906;SDS011;19259;51.590;5.320;2022-07-29T02:09:46;5.50;;;1.75;;
32906;SDS011;19259;51.590;5.320;2022-07-29T02:12:16;6.05;;;2.02;;
32906;SDS011;19259;51.590;5.320;2022-07-29T02:14:47;5.33;;;2.00;;
32906;SDS011;19259;51.590;5.320;2022-07-29T02:17:19;4.08;;;1.60;;
32906;SDS011;19259;51.590;5.320;2022-07-29T02:19:54;4.17;;;1.92;;
32906;SDS011;19259;51.590;5.320;2022-07-29T02:22:23;4.65;;;1.72;;
32906;SDS011;19259;51.590;5.320;2022-07-29T02:24:53;5.95;;;1.98;;
32906;SDS011;19259;51.590;5.320;2022-07-29T02:27:22;6.12;;;1.65;;
32906;SDS011;19259;51.590;5.320;2022-07-29T02:29:50;4.78;;;1.92;;
32906;SDS011;19259;51.590;5.320;2022-07-29T02:32:19;7.17;;;2.10;;
32906;SDS011;19259;51.590;5.320;2022-07-29T02:34:49;5.45;;;1.65;;
32906;SDS011;19259;51.590;5.320;2022-07-29T02:37:18;4.60;;;1.80;;
32906;SDS011;19259;51.590;5.320;2022-07-29T02:39:46;7.22;;;2.00;;
32906;SDS011;19259;51.590;5.320;2022-07-29T02:42:17;2.80;;;1.50;;
32906;SDS011;19259;51.590;5.320;2022-07-29T02:44:45;6.17;;;2.08;;
32906;SDS011;19259;51.590;5.320;2022-07-29T02:49:48;5.95;;;1.85;;
32906;SDS011;19259;51.590;5.320;2022-07-29T02:52:26;6.50;;;2.30;;
32906;SDS011;19259;51.590;5.320;2022-07-29T02:55:15;6.12;;;2.08;;
32906;SDS011;19259;51.590;5.320;2022-07-29T02:57:54;5.45;;;1.87;;
32906;SDS011;19259;51.590;5.320;2022-07-29T03:00:23;6.00;;;2.33;;
32906;SDS011;19259;51.590;5.320;2022-07-29T03:02:58;5.25;;;1.70;;
32906;SDS011;19259;51.590;5.320;2022-07-29T03:05:27;4.75;;;2.10;;
32906;SDS011;19259;51.590;5.320;2022-07-29T03:07:57;3.52;;;2.08;;
32906;SDS011;19259;51.590;5.320;2022-07-29T03:10:26;8.70;;;2.20;;
32906;SDS011;19259;51.590;5.320;2022-07-29T03:12:55;3.45;;;1.95;;
32906;SDS011;19259;51.590;5.320;2022-07-29T03:15:29;5.35;;;2.72;;
32906;SDS011;19259;51.590;5.320;2022-07-29T03:17:53;5.00;;;2.10;;
32906;SDS011;19259;51.590;5.320;2022-07-29T03:20:21;6.33;;;1.85;;
32906;SDS011;19259;51.590;5.320;2022-07-29T03:22:49;4.75;;;1.77;;
32906;SDS011;19259;51.590;5.320;2022-07-29T03:25:18;9.05;;;2.05;;
32906;SDS011;19259;51.590;5.320;2022-07-29T03:27:47;5.58;;;2.20;;
32906;SDS011;19259;51.590;5.320;2022-07-29T03:30:15;7.30;;;2.12;;
32906;SDS011;19259;51.590;5.320;2022-07-29T03:32:43;5.85;;;2.42;;
32906;SDS011;19259;51.590;5.320;2022-07-29T03:35:11;5.25;;;2.00;;
32906;SDS011;19259;51.590;5.320;2022-07-29T03:37:39;7.62;;;2.25;;
32906;SDS011;19259;51.590;5.320;2022-07-29T03:40:07;6.03;;;2.77;;
32906;SDS011;19259;51.590;5.320;2022-07-29T03:42:37;7.62;;;2.55;;
32906;SDS011;19259;51.590;5.320;2022-07-29T03:45:07;6.10;;;2.33;;
32906;SDS011;19259;51.590;5.320;2022-07-29T03:47:39;3.42;;;2.15;;
32906;SDS011;19259;51.590;5.320;2022-07-29T03:50:08;6.30;;;2.47;;
32906;SDS011;19259;51.590;5.320;2022-07-29T03:52:39;6.55;;;2.40;;
32906;SDS011;19259;51.590;5.320;2022-07-29T03:55:07;4.17;;;2.20;;
32906;SDS011;19259;51.590;5.320;2022-07-29T03:57:36;7.00;;;2.60;;
32906;SDS011;19259;51.590;5.320;2022-07-29T04:00:05;9.18;;;2.58;;
32906;SDS011;19259;51.590;5.320;2022-07-29T04:02:35;7.30;;;2.40;;
32906;SDS011;19259;51.590;5.320;2022-07-29T04:05:04;5.92;;;2.75;;
32906;SDS011;19259;51.590;5.320;2022-07-29T04:07:33;8.65;;;2.95;;
32906;SDS011;19259;51.590;5.320;2022-07-29T04:10:01;8.53;;;2.50;;
32906;SDS011;19259;51.590;5.320;2022-07-29T04:12:28;8.33;;;2.45;;
32906;SDS011;19259;51.590;5.320;2022-07-29T04:14:56;3.70;;;1.90;;
32906;SDS011;19259;51.590;5.320;2022-07-29T04:17:23;6.30;;;3.10;;
32906;SDS011;19259;51.590;5.320;2022-07-29T04:19:54;4.45;;;2.40;;
32906;SDS011;19259;51.590;5.320;2022-07-29T04:22:21;6.33;;;2.40;;
32906;SDS011;19259;51.590;5.320;2022-07-29T04:24:51;7.10;;;2.75;;
32906;SDS011;19259;51.590;5.320;2022-07-29T04:27:19;10.05;;;2.50;;
32906;SDS011;19259;51.590;5.320;2022-07-29T04:29:46;7.78;;;3.05;;
32906;SDS011;19259;51.590;5.320;2022-07-29T04:32:14;5.15;;;2.65;;
32906;SDS011;19259;51.590;5.320;2022-07-29T04:34:41;7.97;;;2.80;;
32906;SDS011;19259;51.590;5.320;2022-07-29T04:37:12;7.75;;;3.55;;
32906;SDS011;19259;51.590;5.320;2022-07-29T04:39:39;7.33;;;2.85;;
32906;SDS011;19259;51.590;5.320;2022-07-29T04:42:07;4.92;;;2.67;;
32906;SDS011;19259;51.590;5.320;2022-07-29T04:44:34;5.62;;;2.85;;
32906;SDS011;19259;51.590;5.320;2022-07-29T04:47:02;9.30;;;2.85;;
32906;SDS011;19259;51.590;5.320;2022-07-29T04:49:30;4.25;;;2.50;;
32906;SDS011;19259;51.590;5.320;2022-07-29T04:51:57;7.65;;;2.60;;
32906;SDS011;19259;51.590;5.320;2022-07-29T04:54:25;5.42;;;2.67;;
32906;SDS011;19259;51.590;5.320;2022-07-29T04:56:52;8.60;;;2.70;;
32906;SDS011;19259;51.590;5.320;2022-07-29T04:59:20;6.65;;;2.55;;
32906;SDS011;19259;51.590;5.320;2022-07-29T05:01:48;4.65;;;2.80;;
32906;SDS011;19259;51.590;5.320;2022-07-29T05:04:15;5.55;;;2.70;;
32906;SDS011;19259;51.590;5.320;2022-07-29T05:06:43;5.05;;;2.25;;
32906;SDS011;19259;51.590;5.320;2022-07-29T05:09:17;9.13;;;3.60;;
32906;SDS011;19259;51.590;5.320;2022-07-29T05:11:41;9.73;;;3.20;;
32906;SDS011;19259;51.590;5.320;2022-07-29T05:14:08;7.72;;;3.25;;
32906;SDS011;19259;51.590;5.320;2022-07-29T05:16:38;9.58;;;3.00;;
32906;SDS011;19259;51.590;5.320;2022-07-29T05:19:06;8.30;;;2.98;;
32906;SDS011;19259;51.590;5.320;2022-07-29T05:21:33;7.95;;;2.90;;
32906;SDS011;19259;51.590;5.320;2022-07-29T05:24:03;4.97;;;2.50;;
32906;SDS011;19259;51.590;5.320;2022-07-29T05:26:30;5.33;;;2.50;;
32906;SDS011;19259;51.590;5.320;2022-07-29T05:28:58;6.25;;;3.00;;
32906;SDS011;19259;51.590;5.320;2022-07-29T05:31:25;5.70;;;3.17;;
32906;SDS011;19259;51.590;5.320;2022-07-29T05:33:53;5.92;;;2.77;;
32906;SDS011;19259;51.590;5.320;2022-07-29T05:36:20;6.87;;;3.10;;
32906;SDS011;19259;51.590;5.320;2022-07-29T05:38:48;4.85;;;3.00;;
32906;SDS011;19259;51.590;5.320;2022-07-29T05:41:18;7.25;;;3.10;;
32906;SDS011;19259;51.590;5.320;2022-07-29T05:43:45;6.70;;;3.27;;
32906;SDS011;19259;51.590;5.320;2022-07-29T05:46:13;4.60;;;2.98;;
32906;SDS011;19259;51.590;5.320;2022-07-29T05:48:41;7.55;;;3.80;;
32906;SDS011;19259;51.590;5.320;2022-07-29T05:51:08;6.25;;;2.80;;
32906;SDS011;19259;51.590;5.320;2022-07-29T05:53:36;4.85;;;3.33;;
32906;SDS011;19259;51.590;5.320;2022-07-29T05:56:03;11.60;;;3.70;;
32906;SDS011;19259;51.590;5.320;2022-07-29T05:58:32;6.87;;;3.62;;
32906;SDS011;19259;51.590;5.320;2022-07-29T06:00:59;6.92;;;3.47;;
32906;SDS011;19259;51.590;5.320;2022-07-29T06:03:27;9.18;;;3.60;;
32906;SDS011;19259;51.590;5.320;2022-07-29T06:05:56;8.78;;;4.35;;
32906;SDS011;19259;51.590;5.320;2022-07-29T06:08:23;7.08;;;4.40;;
32906;SDS011;19259;51.590;5.320;2022-07-29T06:10:50;6.40;;;4.10;;
32906;SDS011;19259;51.590;5.320;2022-07-29T06:13:18;7.08;;;4.45;;
32906;SDS011;19259;51.590;5.320;2022-07-29T06:15:45;7.15;;;4.37;;
32906;SDS011;19259;51.590;5.320;2022-07-29T06:18:13;11.63;;;4.53;;
32906;SDS011;19259;51.590;5.320;2022-07-29T06:20:40;16.05;;;4.80;;
32906;SDS011;19259;51.590;5.320;2022-07-29T06:23:08;12.65;;;4.92;;
32906;SDS011;19259;51.590;5.320;2022-07-29T06:25:36;7.72;;;4.80;;
32906;SDS011;19259;51.590;5.320;2022-07-29T06:28:04;14.30;;;5.45;;
32906;SDS011;19259;51.590;5.320;2022-07-29T06:30:32;9.23;;;4.47;;
32906;SDS011;19259;51.590;5.320;2022-07-29T06:33:00;7.30;;;4.22;;
32906;SDS011;19259;51.590;5.320;2022-07-29T06:35:28;7.15;;;4.37;;
32906;SDS011;19259;51.590;5.320;2022-07-29T06:37:55;8.20;;;4.58;;
32906;SDS011;19259;51.590;5.320;2022-07-29T06:40:23;10.65;;;4.50;;
32906;SDS011;19259;51.590;5.320;2022-07-29T06:43:08;8.03;;;4.50;;
32906;SDS011;19259;51.590;5.320;2022-07-29T06:45:36;11.20;;;4.78;;
32906;SDS011;19259;51.590;5.320;2022-07-29T06:48:05;9.23;;;4.60;;
32906;SDS011;19259;51.590;5.320;2022-07-29T06:50:33;10.48;;;5.08;;
32906;SDS011;19259;51.590;5.320;2022-07-29T06:53:00;9.95;;;4.42;;
32906;SDS011;19259;51.590;5.320;2022-07-29T06:55:28;11.18;;;5.05;;
32906;SDS011;19259;51.590;5.320;2022-07-29T06:57:56;9.03;;;4.15;;
32906;SDS011;19259;51.590;5.320;2022-07-29T07:00:23;15.25;;;4.62;;
32906;SDS011;19259;51.590;5.320;2022-07-29T07:02:51;8.53;;;4.60;;
32906;SDS011;19259;51.590;5.320;2022-07-29T07:05:18;8.33;;;4.80;;
32906;SDS011;19259;51.590;5.320;2022-07-29T07:07:46;10.88;;;5.35;;
32906;SDS011;19259;51.590;5.320;2022-07-29T07:10:13;9.70;;;4.95;;
32906;SDS011;19259;51.590;5.320;2022-07-29T07:12:41;9.40;;;5.12;;
32906;SDS011;19259;51.590;5.320;2022-07-29T07:15:09;10.70;;;5.20;;
32906;SDS011;19259;51.590;5.320;2022-07-29T07:17:39;8.98;;;4.58;;
32906;SDS011;19259;51.590;5.320;2022-07-29T07:20:07;8.80;;;4.97;;
32906;SDS011;19259;51.590;5.320;2022-07-29T07:22:35;9.43;;;4.83;;
32906;SDS011;19259;51.590;5.320;2022-07-29T07:25:02;10.10;;;4.87;;
32906;SDS011;19259;51.590;5.320;2022-07-29T07:27:30;12.45;;;5.05;;
32906;SDS011;19259;51.590;5.320;2022-07-29T07:29:57;9.33;;;5.35;;
32906;SDS011;19259;51.590;5.320;2022-07-29T07:32:25;7.03;;;4.72;;
32906;SDS011;19259;51.590;5.320;2022-07-29T07:34:55;10.80;;;4.80;;
32906;SDS011;19259;51.590;5.320;2022-07-29T07:37:24;9.55;;;4.92;;
32906;SDS011;19259;51.590;5.320;2022-07-29T07:39:52;7.67;;;4.35;;
32906;SDS011;19259;51.590;5.320;2022-07-29T07:42:20;7.28;;;4.20;;
32906;SDS011;19259;51.590;5.320;2022-07-29T07:44:47;8.38;;;4.30;;
32906;SDS011;19259;51.590;5.320;2022-07-29T07:47:15;10.08;;;4.47;;
32906;SDS011;19259;51.590;5.320;2022-07-29T07:49:45;10.88;;;4.92;;
32906;SDS011;19259;51.590;5.320;2022-07-29T07:52:13;10.00;;;4.72;;
32906;SDS011;19259;51.590;5.320;2022-07-29T07:54:42;7.28;;;4.83;;
32906;SDS011;19259;51.590;5.320;2022-07-29T07:57:10;8.03;;;4.30;;
32906;SDS011;19259;51.590;5.320;2022-07-29T07:59:38;8.75;;;3.65;;
32906;SDS011;19259;51.590;5.320;2022-07-29T08:02:07;10.20;;;4.65;;
32906;SDS011;19259;51.590;5.320;2022-07-29T08:04:35;6.42;;;3.42;;
32906;SDS011;19259;51.590;5.320;2022-07-29T08:07:06;6.80;;;3.80;;
32906;SDS011;19259;51.590;5.320;2022-07-29T08:09:35;9.70;;;3.58;;
32906;SDS011;19259;51.590;5.320;2022-07-29T08:12:03;8.75;;;4.58;;
32906;SDS011;19259;51.590;5.320;2022-07-29T08:14:31;8.10;;;4.15;;
32906;SDS011;19259;51.590;5.320;2022-07-29T08:16:59;8.38;;;4.10;;
32906;SDS011;19259;51.590;5.320;2022-07-29T08:19:27;8.33;;;3.98;;
32906;SDS011;19259;51.590;5.320;2022-07-29T08:21:55;9.93;;;4.65;;
32906;SDS011;19259;51.590;5.320;2022-07-29T08:24:22;10.18;;;3.87;;
32906;SDS011;19259;51.590;5.320;2022-07-29T08:27:13;10.18;;;3.83;;
32906;SDS011;19259;51.590;5.320;2022-07-29T08:29:40;9.60;;;4.33;;
32906;SDS011;19259;51.590;5.320;2022-07-29T08:32:08;6.97;;;3.80;;
32906;SDS011;19259;51.590;5.320;2022-07-29T08:34:35;6.12;;;3.58;;
32906;SDS011;19259;51.590;5.320;2022-07-29T08:37:03;11.40;;;3.92;;
32906;SDS011;19259;51.590;5.320;2022-07-29T08:39:30;7.08;;;3.10;;
32906;SDS011;19259;51.590;5.320;2022-07-29T08:41:58;11.10;;;4.40;;
32906;SDS011;19259;51.590;5.320;2022-07-29T08:44:26;10.45;;;4.53;;
32906;SDS011;19259;51.590;5.320;2022-07-29T08:46:54;6.10;;;3.40;;
32906;SDS011;19259;51.590;5.320;2022-07-29T08:49:21;43.50;;;9.18;;
32906;SDS011;19259;51.590;5.320;2022-07-29T08:51:49;10.90;;;4.12;;
32906;SDS011;19259;51.590;5.320;2022-07-29T08:54:17;8.28;;;4.28;;
32906;SDS011;19259;51.590;5.320;2022-07-29T08:56:48;5.65;;;2.95;;
32906;SDS011;19259;51.590;5.320;2022-07-29T08:59:17;7.15;;;3.90;;
32906;SDS011;19259;51.590;5.320;2022-07-29T09:01:46;8.60;;;3.40;;
32906;SDS011;19259;51.590;5.320;2022-07-29T09:04:16;10.15;;;3.50;;
32906;SDS011;19259;51.590;5.320;2022-07-29T09:06:46;7.40;;;3.27;;
32906;SDS011;19259;51.590;5.320;2022-07-29T09:09:16;8.18;;;3.40;;
32906;SDS011;19259;51.590;5.320;2022-07-29T09:11:44;6.92;;;3.12;;
32906;SDS011;19259;51.590;5.320;2022-07-29T09:14:12;7.42;;;2.80;;
32906;SDS011;19259;51.590;5.320;2022-07-29T09:16:48;7.45;;;2.90;;
32906;SDS011;19259;51.590;5.320;2022-07-29T09:19:24;6.80;;;3.00;;
32906;SDS011;19259;51.590;5.320;2022-07-29T09:21:57;9.38;;;4.37;;
32906;SDS011;19259;51.590;5.320;2022-07-29T09:24:36;6.47;;;3.05;;
32906;SDS011;19259;51.590;5.320;2022-07-29T09:27:08;5.25;;;2.77;;
32906;SDS011;19259;51.590;5.320;2022-07-29T09:29:38;17.05;;;3.30;;
32906;SDS011;19259;51.590;5.320;2022-07-29T09:32:06;7.35;;;2.95;;
32906;SDS011;19259;51.590;5.320;2022-07-29T09:34:36;4.75;;;2.52;;
32906;SDS011;19259;51.590;5.320;2022-07-29T09:37:04;11.12;;;3.10;;
32906;SDS011;19259;51.590;5.320;2022-07-29T09:39:32;5.65;;;2.37;;
32906;SDS011;19259;51.590;5.320;2022-07-29T09:42:06;6.35;;;2.90;;
32906;SDS011;19259;51.590;5.320;2022-07-29T09:44:47;6.00;;;3.00;;
32906;SDS011;19259;51.590;5.320;2022-07-29T09:47:18;6.72;;;2.50;;
32906;SDS011;19259;51.590;5.320;2022-07-29T09:49:55;12.45;;;3.75;;
32906;SDS011;19259;51.590;5.320;2022-07-29T09:52:27;4.75;;;2.42;;
32906;SDS011;19259;51.590;5.320;2022-07-29T09:55:05;6.95;;;2.27;;
32906;SDS011;19259;51.590;5.320;2022-07-29T09:57:34;8.65;;;2.83;;
32906;SDS011;19259;51.590;5.320;2022-07-29T10:00:07;6.15;;;3.05;;
32906;SDS011;19259;51.590;5.320;2022-07-29T10:02:42;12.37;;;3.12;;
32906;SDS011;19259;51.590;5.320;2022-07-29T10:07:52;7.10;;;2.62;;
32906;SDS011;19259;51.590;5.320;2022-07-29T10:10:22;6.60;;;2.42;;
32906;SDS011;19259;51.590;5.320;2022-07-29T10:12:52;8.28;;;2.37;;
32906;SDS011;19259;51.590;5.320;2022-07-29T10:15:40;7.08;;;2.10;;
32906;SDS011;19259;51.590;5.320;2022-07-29T10:18:11;5.65;;;2.45;;
32906;SDS011;19259;51.590;5.320;2022-07-29T10:20:40;5.97;;;2.30;;
32906;SDS011;19259;51.590;5.320;2022-07-29T10:23:08;7.20;;;2.80;;
32906;SDS011;19259;51.590;5.320;2022-07-29T10:25:36;7.92;;;2.50;;
32906;SDS011;19259;51.590;5.320;2022-07-29T10:28:04;8.10;;;2.20;;
32906;SDS011;19259;51.590;5.320;2022-07-29T10:30:33;4.55;;;1.92;;
32906;SDS011;19259;51.590;5.320;2022-07-29T10:36:00;6.22;;;1.92;;
32906;SDS011;19259;51.590;5.320;2022-07-29T10:38:41;14.10;;;2.72;;
32906;SDS011;19259;51.590;5.320;2022-07-29T10:44:06;12.03;;;2.35;;
32906;SDS011;19259;51.590;5.320;2022-07-29T10:46:42;4.60;;;2.45;;
32906;SDS011;19259;51.590;5.320;2022-07-29T10:49:17;7.05;;;2.22;;
32906;SDS011;19259;51.590;5.320;2022-07-29T10:51:54;9.55;;;2.17;;
32906;SDS011;19259;51.590;5.320;2022-07-29T10:57:15;33.58;;;3.62;;
32906;SDS011;19259;51.590;5.320;2022-07-29T10:59:50;5.60;;;2.27;;
32906;SDS011;19259;51.590;5.320;2022-07-29T11:05:14;10.15;;;2.20;;
32906;SDS011;19259;51.590;5.320;2022-07-29T11:12:56;8.68;;;2.25;;
32906;SDS011;19259;51.590;5.320;2022-07-29T11:15:24;20.75;;;3.70;;
32906;SDS011;19259;51.590;5.320;2022-07-29T11:23:22;7.15;;;2.47;;
32906;SDS011;19259;51.590;5.320;2022-07-29T11:29:02;6.72;;;1.95;;
32906;SDS011;19259;51.590;5.320;2022-07-29T11:31:34;11.08;;;2.30;;
32906;SDS011;19259;51.590;5.320;2022-07-29T11:34:28;14.10;;;2.20;;
32906;SDS011;19259;51.590;5.320;2022-07-29T11:39:39;8.73;;;2.20;;
32906;SDS011;19259;51.590;5.320;2022-07-29T11:47:51;8.13;;;2.42;;
32906;SDS011;19259;51.590;5.320;2022-07-29T11:50:15;6.28;;;2.30;;
32906;SDS011;19259;51.590;5.320;2022-07-29T11:52:46;5.10;;;1.70;;
32906;SDS011;19259;51.590;5.320;2022-07-29T11:55:20;5.03;;;2.05;;
32906;SDS011;19259;51.590;5.320;2022-07-29T11:57:56;4.65;;;2.30;;
32906;SDS011;19259;51.590;5.320;2022-07-29T12:00:25;4.95;;;1.95;;
32906;SDS011;19259;51.590;5.320;2022-07-29T12:02:54;5.33;;;2.98;;
32906;SDS011;19259;51.590;5.320;2022-07-29T12:05:30;7.03;;;2.92;;
32906;SDS011;19259;51.590;5.320;2022-07-29T12:08:19;6.10;;;2.37;;
32906;SDS011;19259;51.590;5.320;2022-07-29T12:10:46;10.00;;;2.35;;
32906;SDS011;19259;51.590;5.320;2022-07-29T12:13:16;5.60;;;1.95;;
32906;SDS011;19259;51.590;5.320;2022-07-29T12:16:03;8.43;;;2.50;;
32906;SDS011;19259;51.590;5.320;2022-07-29T12:18:31;10.60;;;2.35;;
32906;SDS011;19259;51.590;5.320;2022-07-29T12:20:59;8.75;;;2.77;;
32906;SDS011;19259;51.590;5.320;2022-07-29T12:23:32;8.58;;;2.20;;
32906;SDS011;19259;51.590;5.320;2022-07-29T12:26:03;4.83;;;2.52;;
32906;SDS011;19259;51.590;5.320;2022-07-29T12:28:36;8.25;;;2.00;;
32906;SDS011;19259;51.590;5.320;2022-07-29T12:31:04;6.30;;;2.75;;
32906;SDS011;19259;51.590;5.320;2022-07-29T12:33:34;4.70;;;2.25;;
32906;SDS011;19259;51.590;5.320;2022-07-29T12:36:02;6.58;;;2.67;;
32906;SDS011;19259;51.590;5.320;2022-07-29T12:38:29;7.33;;;2.12;;
32906;SDS011;19259;51.590;5.320;2022-07-29T12:40:57;8.00;;;2.27;;
32906;SDS011;19259;51.590;5.320;2022-07-29T12:43:25;5.28;;;2.12;;
32906;SDS011;19259;51.590;5.320;2022-07-29T12:45:54;4.35;;;2.10;;
32906;SDS011;19259;51.590;5.320;2022-07-29T12:48:43;5.20;;;1.95;;
32906;SDS011;19259;51.590;5.320;2022-07-29T12:51:08;4.55;;;1.72;;
32906;SDS011;19259;51.590;5.320;2022-07-29T12:53:39;9.70;;;2.90;;
32906;SDS011;19259;51.590;5.320;2022-07-29T12:56:09;4.45;;;2.00;;
32906;SDS011;19259;51.590;5.320;2022-07-29T12:58:38;7.62;;;2.17;;
32906;SDS011;19259;51.590;5.320;2022-07-29T13:01:08;6.33;;;1.98;;
32906;SDS011;19259;51.590;5.320;2022-07-29T13:03:45;3.60;;;1.80;;
32906;SDS011;19259;51.590;5.320;2022-07-29T13:06:27;6.58;;;2.00;;
32906;SDS011;19259;51.590;5.320;2022-07-29T13:11:33;6.35;;;1.95;;
32906;SDS011;19259;51.590;5.320;2022-07-29T13:14:03;3.70;;;1.70;;
32906;SDS011;19259;51.590;5.320;2022-07-29T13:16:31;4.95;;;2.05;;
32906;SDS011;19259;51.590;5.320;2022-07-29T13:19:09;4.40;;;1.70;;
32906;SDS011;19259;51.590;5.320;2022-07-29T13:21:38;7.08;;;2.08;;
32906;SDS011;19259;51.590;5.320;2022-07-29T13:24:06;8.95;;;2.08;;
32906;SDS011;19259;51.590;5.320;2022-07-29T13:26:39;6.45;;;2.12;;
32906;SDS011;19259;51.590;5.320;2022-07-29T13:29:05;4.10;;;1.50;;
32906;SDS011;19259;51.590;5.320;2022-07-29T13:31:33;8.10;;;2.33;;
32906;SDS011;19259;51.590;5.320;2022-07-29T13:34:00;6.05;;;2.72;;
32906;SDS011;19259;51.590;5.320;2022-07-29T13:36:28;5.03;;;1.80;;
32906;SDS011;19259;51.590;5.320;2022-07-29T13:38:55;4.25;;;2.12;;
32906;SDS011;19259;51.590;5.320;2022-07-29T13:41:28;7.10;;;1.80;;
32906;SDS011;19259;51.590;5.320;2022-07-29T13:43:52;6.55;;;2.15;;
32906;SDS011;19259;51.590;5.320;2022-07-29T13:46:19;6.05;;;2.00;;
32906;SDS011;19259;51.590;5.320;2022-07-29T13:48:47;7.78;;;2.42;;
32906;SDS011;19259;51.590;5.320;2022-07-29T13:51:16;5.45;;;2.00;;
32906;SDS011;19259;51.590;5.320;2022-07-29T13:53:44;4.17;;;1.70;;
32906;SDS011;19259;51.590;5.320;2022-07-29T13:56:11;4.62;;;1.95;;
32906;SDS011;19259;51.590;5.320;2022-07-29T13:58:39;10.30;;;2.35;;
32906;SDS011;19259;51.590;5.320;2022-07-29T14:01:06;6.53;;;1.90;;
32906;SDS011;19259;51.590;5.320;2022-07-29T14:03:34;8.58;;;2.27;;
32906;SDS011;19259;51.590;5.320;2022-07-29T14:06:03;4.50;;;1.95;;
32906;SDS011;19259;51.590;5.320;2022-07-29T14:08:31;5.22;;;2.08;;
32906;SDS011;19259;51.590;5.320;2022-07-29T14:10:59;10.75;;;2.30;;
32906;SDS011;19259;51.590;5.320;2022-07-29T14:13:26;6.30;;;2.40;;
32906;SDS011;19259;51.590;5.320;2022-07-29T14:15:54;6.75;;;2.22;;
32906;SDS011;19259;51.590;5.320;2022-07-29T14:18:21;6.53;;;1.72;;
32906;SDS011;19259;51.590;5.320;2022-07-29T14:20:49;8.03;;;2.00;;
32906;SDS011;19259;51.590;5.320;2022-07-29T14:23:17;6.28;;;2.12;;
32906;SDS011;19259;51.590;5.320;2022-07-29T14:25:45;4.12;;;1.85;;
32906;SDS011;19259;51.590;5.320;2022-07-29T14:28:12;4.25;;;1.90;;
32906;SDS011;19259;51.590;5.320;2022-07-29T14:30:40;5.97;;;2.33;;
32906;SDS011;19259;51.590;5.320;2022-07-29T14:33:08;4.12;;;1.77;;
32906;SDS011;19259;51.590;5.320;2022-07-29T14:35:35;4.70;;;2.15;;
32906;SDS011;19259;51.590;5.320;2022-07-29T14:38:03;4.87;;;2.02;;
32906;SDS011;19259;51.590;5.320;2022-07-29T14:40:31;6.97;;;2.08;;
32906;SDS011;19259;51.590;5.320;2022-07-29T14:42:58;5.28;;;1.90;;
32906;SDS011;19259;51.590;5.320;2022-07-29T14:45:27;4.17;;;1.90;;
32906;SDS011;19259;51.590;5.320;2022-07-29T14:47:54;9.28;;;2.40;;
32906;SDS011;19259;51.590;5.320;2022-07-29T14:50:22;8.65;;;2.35;;
32906;SDS011;19259;51.590;5.320;2022-07-29T14:52:51;4.15;;;2.00;;
32906;SDS011;19259;51.590;5.320;2022-07-29T14:55:20;5.45;;;2.50;;
32906;SDS011;19259;51.590;5.320;2022-07-29T14:57:49;8.88;;;2.22;;
32906;SDS011;19259;51.590;5.320;2022-07-29T15:00:17;3.33;;;1.65;;
32906;SDS011;19259;51.590;5.320;2022-07-29T15:02:46;6.05;;;1.90;;
32906;SDS011;19259;51.590;5.320;2022-07-29T15:05:15;4.40;;;1.98;;
32906;SDS011;19259;51.590;5.320;2022-07-29T15:07:42;5.92;;;2.10;;
32906;SDS011;19259;51.590;5.320;2022-07-29T15:10:10;4.37;;;1.77;;
32906;SDS011;19259;51.590;5.320;2022-07-29T15:12:37;4.25;;;1.65;;
32906;SDS011;19259;51.590;5.320;2022-07-29T15:15:06;4.80;;;2.02;;
32906;SDS011;19259;51.590;5.320;2022-07-29T15:17:34;5.60;;;2.50;;
32906;SDS011;19259;51.590;5.320;2022-07-29T15:20:02;6.95;;;2.05;;
32906;SDS011;19259;51.590;5.320;2022-07-29T15:22:30;6.08;;;1.80;;
32906;SDS011;19259;51.590;5.320;2022-07-29T15:24:58;5.28;;;1.77;;
32906;SDS011;19259;51.590;5.320;2022-07-29T15:27:28;6.55;;;1.82;;
32906;SDS011;19259;51.590;5.320;2022-07-29T15:29:56;12.82;;;1.70;;
32906;SDS011;19259;51.590;5.320;2022-07-29T15:32:23;5.22;;;1.50;;
32906;SDS011;19259;51.590;5.320;2022-07-29T15:34:51;6.85;;;1.70;;
32906;SDS011;19259;51.590;5.320;2022-07-29T15:37:19;4.00;;;1.50;;
32906;SDS011;19259;51.590;5.320;2022-07-29T15:39:46;4.22;;;1.60;;
32906;SDS011;19259;51.590;5.320;2022-07-29T15:42:15;4.25;;;1.80;;
32906;SDS011;19259;51.590;5.320;2022-07-29T15:44:43;6.28;;;1.92;;
32906;SDS011;19259;51.590;5.320;2022-07-29T15:47:10;17.25;;;2.58;;